Terminal Aerodrome Forecast
Issued by NWS Billings, MT

Home | Current Version | Previous Version | Graphics & Text | Print | Product List | Glossary On
Versions: 1 2 3 4 5 6 7 8 9 10 11 12 13 14 15 16 17 18 19 20 21 22 23 24 25 26
089
FTUS45 KBYZ 210531
TAFMLS
TAF
KMLS 210531Z 2106/2206 VRB06KT P6SM SKC
     FM211400 31015KT P6SM VCSH SCT070
     FM220300 31008KT P6SM VCSH BKN050=

USA.gov is the U.S. government's official web portal to all federal, state and local government web resources and services.